Time;durP1;ratioP1;P1;durP2;ratioP2;P2;SDS_P1;SDS_P2;PMS_P1;PMS_P2;Temp;Humidity;BMP_temperature;BMP_pressure;BME280_temperature;BME280_humidity;BME280_pressure;Samples;Min_cycle;Max_cycle;Signal;HPM_P1;HPM_P2
2022/01/21 00:00:57;;;;;;;17.30;16.50;;;5.30;75.80;;;;;;4968257;28;20043;-81
2022/01/21 00:03:24;;;;;;;17.90;17.00;;;5.20;75.80;;;;;;4932070;28;20050;-81
2022/01/21 00:05:50;;;;;;;16.90;16.00;;;5.20;75.90;;;;;;4973615;28;20057;-81
2022/01/21 00:08:16;;;;;;;17.13;16.33;;;5.20;75.80;;;;;;4962290;28;20039;-81
2022/01/21 00:10:42;;;;;;;17.33;16.53;;;5.20;75.90;;;;;;4961836;28;20042;-81
2022/01/21 00:13:18;;;;;;;17.60;16.80;;;5.20;75.90;;;;;;4945883;28;20435;-81
2022/01/21 00:15:44;;;;;;;17.67;16.87;;;5.10;76.60;;;;;;4969936;28;20066;-81
2022/01/21 00:18:11;;;;;;;18.27;17.00;;;5.10;75.90;;;;;;4960979;28;20027;-81
2022/01/21 00:31:36;;;;;;;17.40;16.60;;;5.00;75.90;;;;;;4985035;28;20508;-81
2022/01/21 00:34:02;;;;;;;16.80;16.00;;;5.00;75.90;;;;;;4983995;28;20034;-81
2022/01/21 00:36:28;;;;;;;16.90;16.10;;;5.00;76.00;;;;;;4991848;28;20060;-81
2022/01/21 00:38:56;;;;;;;16.73;15.93;;;4.90;76.00;;;;;;4980378;28;20034;-80
2022/01/21 00:41:26;;;;;;;16.23;15.53;;;4.90;76.00;;;;;;4991643;28;20049;-81
2022/01/21 00:43:52;;;;;;;17.47;16.67;;;4.90;76.00;;;;;;4990688;28;20050;-81
2022/01/21 00:46:19;;;;;;;16.97;16.17;;;4.90;76.10;;;;;;4988230;28;20270;-81
2022/01/21 00:48:45;;;;;;;17.10;16.30;;;4.90;76.10;;;;;;4992962;28;20045;-81
2022/01/21 00:51:11;;;;;;;17.37;16.57;;;4.90;76.10;;;;;;4994301;28;20034;-81
2022/01/21 00:53:37;;;;;;;17.00;16.20;;;4.90;76.20;;;;;;4988714;28;20038;-80
2022/01/21 00:56:04;;;;;;;17.30;16.50;;;4.80;76.10;;;;;;4980831;28;20031;-81
2022/01/21 00:58:30;;;;;;;17.17;16.37;;;4.80;76.20;;;;;;4982289;28;20404;-81
2022/01/21 01:00:56;;;;;;;17.70;16.90;;;4.80;76.20;;;;;;4982756;28;20035;-81
2022/01/21 01:03:22;;;;;;;17.90;16.60;;;4.80;76.20;;;;;;4981916;28;20065;-81
2022/01/21 01:05:51;;;;;;;17.23;16.43;;;4.80;76.20;;;;;;4977438;28;20094;-81
2022/01/21 01:08:18;;;;;;;17.00;16.20;;;4.80;76.30;;;;;;4990244;28;20046;-81
2022/01/21 01:21:33;;;;;;;16.50;15.73;;;4.70;76.30;;;;;;4984804;28;20053;-81
2022/01/21 01:29:10;;;;;;;16.23;15.53;;;4.70;76.30;;;;;;4980392;28;20053;-81
2022/01/21 01:31:36;;;;;;;15.80;15.10;;;4.70;76.30;;;;;;4986151;28;20475;-81
2022/01/21 01:34:03;;;;;;;17.00;16.20;;;4.70;76.30;;;;;;4990995;28;20510;-81
2022/01/21 01:36:30;;;;;;;17.20;16.40;;;4.70;76.40;;;;;;4984899;28;20026;-81
2022/01/21 01:41:35;;;;;;;17.90;17.10;;;4.70;76.40;;;;;;4978205;28;20046;-81
2022/01/21 01:49:34;;;;;;;16.73;15.93;;;4.70;76.40;;;;;;4981781;28;20041;-81
2022/01/21 01:52:00;;;;;;;17.20;16.40;;;4.70;76.40;;;;;;4981196;28;20034;-81
2022/01/21 01:54:28;;;;;;;17.90;17.07;;;4.70;76.40;;;;;;4980001;28;20049;-81
2022/01/21 01:56:55;;;;;;;17.07;16.27;;;4.70;76.50;;;;;;4983576;28;20034;-81
2022/01/21 01:59:21;;;;;;;16.90;16.10;;;4.70;76.50;;;;;;4976335;28;20047;-81
2022/01/21 02:01:58;;;;;;;17.00;16.20;;;4.60;76.50;;;;;;4989281;28;20480;-81
2022/01/21 02:04:24;;;;;;;18.13;16.97;;;4.60;77.30;;;;;;4988407;28;20034;-81
2022/01/21 02:06:51;;;;;;;16.87;16.07;;;4.60;76.60;;;;;;4985649;28;20038;-81
2022/01/21 02:09:17;;;;;;;16.90;16.10;;;4.60;76.60;;;;;;4984362;28;20050;-81
2022/01/21 02:11:43;;;;;;;17.40;16.60;;;4.60;76.60;;;;;;4991213;28;20475;-80
2022/01/21 02:14:14;;;;;;;16.53;15.73;;;4.60;76.60;;;;;;4971767;28;20030;-80
2022/01/21 02:17:06;;;;;;;16.98;16.17;;;4.60;76.60;;;;;;4987996;28;20514;-81
2022/01/21 02:22:24;;;;;;;17.53;16.73;;;4.60;76.70;;;;;;4989477;28;20050;-81
2022/01/21 02:24:57;;;;;;;17.20;16.40;;;4.50;76.60;;;;;;4983397;28;20491;-81
2022/01/21 02:27:23;;;;;;;16.97;16.17;;;4.50;76.60;;;;;;4991139;28;20038;-80
2022/01/21 02:29:59;;;;;;;17.33;16.53;;;4.50;77.40;;;;;;4976315;28;20056;-81
2022/01/21 02:32:25;;;;;;;17.63;16.70;;;4.50;76.60;;;;;;4975303;28;20035;-81
2022/01/21 02:34:51;;;;;;;16.60;15.80;;;4.50;76.70;;;;;;4985761;28;20054;-81
2022/01/21 02:37:19;;;;;;;16.53;15.77;;;4.50;76.70;;;;;;4988323;28;20030;-81
2022/01/21 02:39:45;;;;;;;16.57;15.80;;;4.50;76.70;;;;;;4987033;28;20030;-81
2022/01/21 02:42:11;;;;;;;16.90;16.10;;;4.50;76.80;;;;;;4988057;28;20066;-81
2022/01/21 02:44:39;;;;;;;16.70;15.90;;;4.50;76.80;;;;;;4991299;28;20050;-81
2022/01/21 02:47:06;;;;;;;17.20;16.40;;;4.40;76.70;;;;;;4988177;28;20053;-81
2022/01/21 02:49:32;;;;;;;16.30;15.60;;;4.40;76.80;;;;;;4998302;28;20496;-81
2022/01/21 02:52:01;;;;;;;16.40;15.63;;;4.40;76.80;;;;;;4981336;28;20035;-81
2022/01/21 02:54:31;;;;;;;15.67;14.97;;;4.40;76.80;;;;;;4979591;28;20034;-80
2022/01/21 02:57:01;;;;;;;16.80;16.00;;;4.40;76.80;;;;;;4976974;28;20038;-80
2022/01/21 02:59:27;;;;;;;17.00;16.20;;;4.40;76.80;;;;;;4976665;28;20042;-81
2022/01/21 03:01:53;;;;;;;17.07;16.27;;;4.30;76.70;;;;;;4977697;28;20399;-81
2022/01/21 03:04:32;;;;;;;18.73;17.17;;;4.30;76.80;;;;;;4981483;28;20395;-81
2022/01/21 03:06:58;;;;;;;18.43;17.00;;;4.30;76.90;;;;;;4980528;28;20030;-80
2022/01/21 03:09:24;;;;;;;16.30;15.50;;;4.30;76.90;;;;;;4985681;28;20030;-81
2022/01/21 03:11:50;;;;;;;16.10;15.40;;;4.30;76.90;;;;;;4980607;28;20077;-80
2022/01/21 03:14:16;;;;;;;16.73;15.93;;;4.30;76.90;;;;;;4989967;28;20039;-81
2022/01/21 03:16:42;;;;;;;16.30;15.60;;;4.30;76.90;;;;;;4985993;28;20039;-80
2022/01/21 03:19:08;;;;;;;16.03;15.33;;;4.20;76.90;;;;;;4982869;28;20467;-80
2022/01/21 03:21:36;;;;;;;16.63;15.83;;;4.20;77.00;;;;;;4986589;28;20035;-81
2022/01/21 03:24:02;;;;;;;16.97;16.17;;;4.20;77.00;;;;;;4971516;28;20046;-81
2022/01/21 03:26:28;;;;;;;16.33;15.60;;;4.20;77.00;;;;;;4970673;28;20053;-80
2022/01/21 03:28:57;;;;;;;16.73;15.93;;;4.10;77.00;;;;;;4989291;28;20498;-80
2022/01/21 03:31:23;;;;;;;16.80;16.00;;;4.10;77.10;;;;;;4966305;28;20516;-80
2022/01/21 03:33:49;;;;;;;15.90;15.20;;;4.10;77.10;;;;;;4975043;28;20038;-80
2022/01/21 03:36:15;;;;;;;17.13;16.33;;;4.10;77.10;;;;;;4975034;28;20049;-80
2022/01/21 03:38:41;;;;;;;16.90;16.10;;;4.10;77.10;;;;;;4961860;28;20042;-80
2022/01/21 03:41:07;;;;;;;16.33;15.63;;;4.10;77.10;;;;;;4972229;28;20050;-80
2022/01/21 03:43:33;;;;;;;16.70;15.90;;;4.00;77.10;;;;;;4967055;28;20478;-81
2022/01/21 03:45:59;;;;;;;16.40;15.63;;;4.00;77.20;;;;;;4976304;28;20038;-80
2022/01/21 03:48:26;;;;;;;16.03;15.33;;;4.00;77.20;;;;;;4994084;28;20035;-80
2022/01/21 03:50:52;;;;;;;16.60;15.80;;;4.00;77.20;;;;;;4979492;28;20030;-80
2022/01/21 03:53:18;;;;;;;16.67;15.87;;;4.00;77.20;;;;;;4984766;28;20066;-80
2022/01/21 03:55:45;;;;;;;16.33;15.57;;;4.00;77.20;;;;;;4984428;28;20038;-80
2022/01/21 03:58:11;;;;;;;16.60;15.80;;;4.00;77.20;;;;;;4985530;28;20038;-80
2022/01/21 04:00:42;;;;;;;16.93;16.13;;;3.90;77.20;;;;;;4990713;28;20035;-80
2022/01/21 04:03:08;;;;;;;16.70;15.80;;;3.90;77.20;;;;;;4991914;28;20534;-80
2022/01/21 04:05:35;;;;;;;17.37;16.57;;;3.90;77.20;;;;;;4961683;28;20042;-80
2022/01/21 04:08:02;;;;;;;16.13;15.43;;;3.90;77.20;;;;;;4981025;28;20039;-80
2022/01/21 04:10:28;;;;;;;14.90;14.20;;;3.90;77.30;;;;;;4990860;28;20030;-80
2022/01/21 04:12:54;;;;;;;16.63;15.83;;;3.80;77.30;;;;;;4990994;28;20042;-80
2022/01/21 04:15:22;;;;;;;16.07;15.37;;;3.80;77.30;;;;;;4994425;28;20383;-80
2022/01/21 04:17:48;;;;;;;16.73;15.93;;;3.70;77.40;;;;;;4978766;28;20038;-83
2022/01/21 04:20:14;;;;;;;17.43;16.63;;;3.70;77.40;;;;;;4983690;28;20384;-77
2022/01/21 04:22:40;;;;;;;16.67;15.87;;;3.70;77.50;;;;;;4988904;28;20046;-77
2022/01/21 04:25:07;;;;;;;17.27;16.47;;;3.70;77.60;;;;;;4986961;28;20042;-77
2022/01/21 04:27:33;;;;;;;16.43;15.63;;;3.60;77.50;;;;;;4985413;28;20025;-78
2022/01/21 04:29:59;;;;;;;17.33;16.43;;;3.60;77.60;;;;;;4984332;28;20479;-78
2022/01/21 04:32:25;;;;;;;16.30;15.53;;;3.60;77.50;;;;;;4975459;28;20026;-78
2022/01/21 04:34:51;;;;;;;18.17;17.07;;;3.60;77.60;;;;;;4982018;28;20468;-78
2022/01/21 04:37:17;;;;;;;15.40;14.70;;;3.60;77.50;;;;;;4986994;28;20046;-78
2022/01/21 04:39:51;;;;;;;16.60;15.80;;;3.60;77.50;;;;;;4985176;28;20377;-78
2022/01/21 04:47:33;;;;;;;16.70;15.90;;;3.70;77.50;;;;;;4973742;28;20511;-81
2022/01/21 04:49:59;;;;;;;17.40;16.60;;;3.60;77.40;;;;;;4985625;28;20035;-81
2022/01/21 04:52:25;;;;;;;15.80;15.10;;;3.60;77.50;;;;;;4971394;28;20039;-81
2022/01/21 04:54:51;;;;;;;16.73;15.93;;;3.70;77.50;;;;;;4993144;28;20054;-82
2022/01/21 04:57:17;;;;;;;16.67;15.87;;;3.60;77.50;;;;;;4989569;28;20038;-81
2022/01/21 04:59:44;;;;;;;16.57;15.77;;;3.60;77.50;;;;;;4970694;28;20045;-82
2022/01/21 05:02:10;;;;;;;17.50;16.70;;;3.70;77.50;;;;;;4990030;28;20030;-82
2022/01/21 05:04:36;;;;;;;16.47;15.73;;;3.60;77.50;;;;;;4984619;28;20039;-81
2022/01/21 05:07:05;;;;;;;16.57;15.77;;;3.60;77.50;;;;;;4983143;28;20388;-82
2022/01/21 05:09:34;;;;;;;16.30;15.60;;;3.60;77.50;;;;;;4988759;28;20031;-81
2022/01/21 05:12:02;;;;;;;16.00;15.30;;;3.60;77.50;;;;;;4991523;28;20170;-81
2022/01/21 05:14:45;;;;;;;16.97;16.17;;;3.60;77.60;;;;;;4990640;28;20042;-82
2022/01/21 05:17:13;;;;;;;16.43;15.70;;;3.60;77.60;;;;;;4980786;28;20043;-82
2022/01/21 05:19:39;;;;;;;15.60;14.90;;;3.60;77.50;;;;;;4984257;28;20486;-81
2022/01/21 05:22:05;;;;;;;16.10;15.40;;;3.60;77.50;;;;;;4987127;28;20047;-81
2022/01/21 05:24:31;;;;;;;16.10;15.40;;;3.60;77.50;;;;;;4979669;28;20403;-81
2022/01/21 05:27:00;;;;;;;16.13;15.43;;;3.50;77.50;;;;;;4992119;28;20034;-82
2022/01/21 05:29:31;;;;;;;16.27;15.57;;;3.50;77.60;;;;;;4991207;28;20042;-80
2022/01/21 05:31:58;;;;;;;15.85;15.15;;;3.50;77.60;;;;;;4980895;28;20043;-80
2022/01/21 05:34:24;;;;;;;16.03;15.23;;;3.50;77.70;;;;;;4981420;28;20400;-80
2022/01/21 05:36:50;;;;;;;15.43;14.73;;;3.40;77.70;;;;;;4983112;28;20494;-81
2022/01/21 05:39:16;;;;;;;15.40;14.70;;;3.40;77.70;;;;;;4987163;28;20035;-81
2022/01/21 05:41:49;;;;;;;15.70;15.00;;;3.40;77.70;;;;;;4974339;28;20038;-79
2022/01/21 05:46:58;;;;;;;15.43;14.73;;;3.40;77.80;;;;;;4987998;28;20042;-80
2022/01/21 05:49:25;;;;;;;15.67;14.97;;;3.30;77.80;;;;;;4991528;28;20050;-79
2022/01/21 05:52:02;;;;;;;16.27;15.57;;;3.40;77.90;;;;;;4990744;28;20037;-81
2022/01/21 05:54:28;;;;;;;15.97;15.17;;;3.30;77.90;;;;;;4978010;28;20034;-81
2022/01/21 05:56:54;;;;;;;16.00;15.30;;;3.30;77.90;;;;;;4991310;28;20483;-80
2022/01/21 05:59:21;;;;;;;15.90;15.20;;;3.30;77.90;;;;;;4989820;28;20086;-80
2022/01/21 06:01:47;;;;;;;15.57;14.87;;;3.40;77.90;;;;;;4980197;28;20035;-80
2022/01/21 06:04:13;;;;;;;16.17;15.40;;;3.30;77.90;;;;;;4982406;28;20412;-80
2022/01/21 06:06:39;;;;;;;16.73;15.73;;;3.30;77.90;;;;;;4987223;28;20023;-80
2022/01/21 06:09:06;;;;;;;15.70;15.00;;;3.40;78.00;;;;;;4988671;28;20053;-79
2022/01/21 06:11:32;;;;;;;15.40;14.70;;;3.40;77.90;;;;;;4974862;28;20031;-79
2022/01/21 06:14:00;;;;;;;15.70;14.90;;;3.40;77.90;;;;;;4979112;28;20042;-80
2022/01/21 06:16:26;;;;;;;15.83;15.13;;;3.40;77.90;;;;;;4985387;28;20479;-79
2022/01/21 06:18:52;;;;;;;15.80;15.10;;;3.40;77.90;;;;;;4987848;28;20039;-80
2022/01/21 06:21:18;;;;;;;15.00;14.30;;;3.40;77.90;;;;;;4976446;28;20516;-79
2022/01/21 06:23:44;;;;;;;16.00;15.27;;;3.40;77.90;;;;;;4983267;28;20050;-80
2022/01/21 06:26:10;;;;;;;15.53;14.83;;;3.40;77.90;;;;;;4977980;28;20425;-79
2022/01/21 06:28:36;;;;;;;15.60;14.90;;;3.40;77.90;;;;;;4984347;28;20046;-79
2022/01/21 06:31:02;;;;;;;16.13;15.43;;;3.40;77.90;;;;;;4987818;28;20290;-79
2022/01/21 06:33:29;;;;;;;15.57;14.87;;;3.40;77.90;;;;;;4987627;28;20038;-79
2022/01/21 06:35:55;;;;;;;16.03;15.33;;;3.40;77.90;;;;;;4991077;28;20038;-79
2022/01/21 06:38:21;;;;;;;16.50;15.70;;;3.40;78.00;;;;;;4986865;28;20510;-80
2022/01/21 06:40:48;;;;;;;16.03;15.23;;;3.30;78.00;;;;;;4964260;28;20231;-79
2022/01/21 06:43:14;;;;;;;15.90;15.20;;;3.30;78.00;;;;;;4984032;28;20490;-79
2022/01/21 06:45:40;;;;;;;15.73;15.03;;;3.30;78.10;;;;;;4986847;28;20391;-79
2022/01/21 06:48:06;;;;;;;15.90;15.20;;;3.30;78.20;;;;;;4990576;28;20026;-79
2022/01/21 06:50:34;;;;;;;15.80;15.10;;;3.30;78.10;;;;;;4990499;28;20030;-79
2022/01/21 06:53:00;;;;;;;15.90;15.20;;;3.30;78.20;;;;;;4978505;28;20210;-79
2022/01/21 06:55:27;;;;;;;15.43;14.73;;;3.30;78.20;;;;;;4984729;28;20038;-78
2022/01/21 06:57:53;;;;;;;15.60;14.90;;;3.30;78.20;;;;;;4986779;28;20502;-79
2022/01/21 07:00:20;;;;;;;15.67;14.97;;;3.30;78.20;;;;;;4976434;28;20035;-78
2022/01/21 07:02:47;;;;;;;15.90;15.20;;;3.30;78.20;;;;;;4971871;28;20034;-78
2022/01/21 07:05:13;;;;;;;15.57;14.87;;;3.30;78.20;;;;;;4944796;28;20488;-78
2022/01/21 07:07:39;;;;;;;15.70;15.00;;;3.30;78.20;;;;;;4986013;28;20030;-78
2022/01/21 07:10:06;;;;;;;15.37;14.67;;;3.30;78.20;;;;;;4987012;28;20037;-78
2022/01/21 07:12:33;;;;;;;16.00;15.20;;;3.30;78.20;;;;;;4990722;28;20391;-79
2022/01/21 07:14:59;;;;;;;15.77;15.07;;;3.30;78.30;;;;;;4982235;28;20038;-80
2022/01/21 07:17:25;;;;;;;16.00;15.30;;;3.30;78.30;;;;;;4987270;28;20057;-79
2022/01/21 07:19:52;;;;;;;16.20;15.43;;;3.30;78.30;;;;;;4990730;28;20041;-79
2022/01/21 07:22:18;;;;;;;15.57;14.87;;;3.30;78.30;;;;;;4995048;28;20034;-79
2022/01/21 07:24:44;;;;;;;16.10;15.40;;;3.30;78.40;;;;;;4989082;28;20042;-78
2022/01/21 07:27:10;;;;;;;16.10;15.40;;;3.30;78.40;;;;;;4991792;28;20083;-78
2022/01/21 07:29:36;;;;;;;16.77;15.87;;;3.30;78.40;;;;;;4990974;28;20407;-78
2022/01/21 07:32:03;;;;;;;15.97;15.17;;;3.30;78.40;;;;;;4992337;28;20471;-78
2022/01/21 07:34:29;;;;;;;15.53;14.83;;;3.30;78.40;;;;;;4984732;28;20042;-79
2022/01/21 07:36:55;;;;;;;16.00;15.30;;;3.30;78.50;;;;;;4979324;28;20575;-79
2022/01/21 07:39:21;;;;;;;15.67;14.83;;;3.30;78.50;;;;;;4980846;28;20046;-80
2022/01/21 07:41:48;;;;;;;15.87;15.17;;;3.30;78.50;;;;;;4991981;28;20399;-78
2022/01/21 07:44:14;;;;;;;15.87;15.17;;;3.30;78.60;;;;;;4992045;28;20041;-79
2022/01/21 07:46:41;;;;;;;15.43;14.73;;;3.30;78.60;;;;;;4977420;28;20060;-79
2022/01/21 07:49:07;;;;;;;15.97;15.27;;;3.30;78.60;;;;;;4985544;28;20487;-80
2022/01/21 07:51:33;;;;;;;15.77;15.07;;;3.30;78.70;;;;;;5000926;28;20045;-80
2022/01/21 07:54:00;;;;;;;16.27;15.57;;;3.30;78.60;;;;;;4984737;28;20026;-79
2022/01/21 07:56:26;;;;;;;15.80;15.10;;;3.30;78.60;;;;;;4988268;28;20041;-80
2022/01/21 07:58:52;;;;;;;15.60;14.90;;;3.30;78.60;;;;;;4985726;28;20043;-79
2022/01/21 08:01:18;;;;;;;15.50;14.80;;;3.30;78.60;;;;;;4990151;28;20046;-79
2022/01/21 08:03:44;;;;;;;15.90;15.20;;;3.30;78.60;;;;;;4990517;28;20050;-79
2022/01/21 08:06:10;;;;;;;16.47;15.67;;;3.30;78.50;;;;;;4984290;28;20035;-79
2022/01/21 08:08:36;;;;;;;16.30;15.50;;;3.40;78.50;;;;;;4990437;28;20058;-80
2022/01/21 08:11:03;;;;;;;15.50;14.80;;;3.40;78.50;;;;;;4990441;28;20035;-80
2022/01/21 08:13:29;;;;;;;15.77;15.07;;;3.40;78.50;;;;;;4986408;28;20403;-81
2022/01/21 08:15:55;;;;;;;15.67;14.97;;;3.40;78.50;;;;;;4990892;28;20050;-79
2022/01/21 08:18:21;;;;;;;15.73;15.03;;;3.40;78.50;;;;;;4974546;28;20031;-82
2022/01/21 08:20:48;;;;;;;15.93;15.23;;;3.40;78.50;;;;;;4991139;28;20475;-79
2022/01/21 08:23:14;;;;;;;15.77;15.07;;;3.40;78.50;;;;;;4989301;28;20058;-81
2022/01/21 08:25:40;;;;;;;15.53;14.83;;;3.40;78.50;;;;;;4973895;28;20373;-81
2022/01/21 08:28:06;;;;;;;15.77;15.07;;;3.40;78.50;;;;;;4975977;28;20032;-81
2022/01/21 08:30:32;;;;;;;16.30;15.60;;;3.40;78.50;;;;;;4983156;28;20035;-81
2022/01/21 08:32:59;;;;;;;15.90;15.20;;;3.50;78.70;;;;;;4991971;28;20519;-83
2022/01/21 08:35:25;;;;;;;19.63;15.77;;;3.50;78.60;;;;;;4986794;28;20027;-83
2022/01/21 08:37:54;;;;;;;16.40;15.60;;;3.50;78.70;;;;;;4967190;28;20784;-82
2022/01/21 08:40:20;;;;;;;15.37;14.67;;;3.50;78.60;;;;;;4979445;28;20042;-82
2022/01/21 08:42:46;;;;;;;16.10;15.40;;;3.50;79.40;;;;;;4980329;28;20038;-82
2022/01/21 08:45:13;;;;;;;16.30;15.50;;;3.60;78.60;;;;;;4957358;28;20057;-82
2022/01/21 08:47:41;;;;;;;16.20;15.50;;;3.60;78.60;;;;;;4986254;28;20027;-88
2022/01/21 08:50:11;;;;;;;16.50;15.70;;;3.60;78.60;;;;;;4991098;28;20034;-85
2022/01/21 08:52:38;;;;;;;16.50;15.75;;;3.70;78.50;;;;;;4978745;28;20490;-82
2022/01/21 08:55:09;;;;;;;16.13;15.43;;;3.70;78.50;;;;;;4986466;28;20046;-82
2022/01/21 08:57:37;;;;;;;16.65;15.85;;;3.80;78.40;;;;;;4986062;28;20029;-83
2022/01/21 09:00:08;;;;;;;16.13;15.43;;;3.80;78.40;;;;;;4963109;28;20031;-85
2022/01/21 09:02:34;;;;;;;16.30;15.60;;;3.80;78.40;;;;;;4996333;28;20026;-85
2022/01/21 09:05:00;;;;;;;16.27;15.47;;;3.90;78.30;;;;;;4987659;28;20049;-86
2022/01/21 09:07:26;;;;;;;16.57;15.77;;;4.00;78.40;;;;;;4974354;28;20038;-85
2022/01/21 09:09:52;;;;;;;16.77;15.97;;;4.00;78.30;;;;;;4987456;28;20495;-88
2022/01/21 09:12:18;;;;;;;15.97;15.27;;;4.10;78.40;;;;;;4992008;28;20030;-85
2022/01/21 09:14:45;;;;;;;17.00;16.20;;;4.10;78.40;;;;;;4983110;28;20480;-84
2022/01/21 09:17:11;;;;;;;16.67;15.87;;;4.20;78.30;;;;;;4986758;28;20042;-84
2022/01/21 09:19:37;;;;;;;16.93;16.13;;;4.20;78.20;;;;;;4986160;28;20049;-84
2022/01/21 09:22:03;;;;;;;15.67;14.93;;;4.30;78.20;;;;;;4972081;28;20034;-86
2022/01/21 09:24:31;;;;;;;16.13;15.43;;;4.30;78.20;;;;;;4993613;28;20034;-83
2022/01/21 09:26:57;;;;;;;16.67;15.87;;;4.40;78.20;;;;;;4991508;28;20029;-85
2022/01/21 09:29:24;;;;;;;17.07;16.27;;;4.40;78.20;;;;;;4987884;28;20027;-83
2022/01/21 09:31:50;;;;;;;16.40;15.60;;;4.50;78.20;;;;;;4974492;28;20038;-84
2022/01/21 09:34:16;;;;;;;16.80;16.00;;;4.50;78.10;;;;;;4983568;28;20041;-87
2022/01/21 09:36:42;;;;;;;17.37;16.57;;;4.60;78.00;;;;;;4987710;28;20403;-87
2022/01/21 09:39:08;;;;;;;19.27;18.37;;;4.70;78.10;;;;;;4985241;28;20041;-86
2022/01/21 09:41:34;;;;;;;19.30;18.40;;;4.90;78.00;;;;;;4990796;28;20037;-85
2022/01/21 09:44:04;;;;;;;19.73;18.27;;;5.00;77.50;;;;;;4985778;28;20050;-85
2022/01/21 09:46:35;;;;;;;18.73;17.83;;;5.30;77.10;;;;;;4982085;28;20038;-84
2022/01/21 09:49:08;;;;;;;;;;;5.50;76.50;;;;;;4950085;28;20050;-84
2022/01/21 09:51:37;;;;;;;1999.90;999.90;;;5.70;76.20;;;;;;4983290;28;19910;-84
2022/01/21 09:54:04;;;;;;;1999.90;999.90;;;5.80;75.60;;;;;;4981657;28;20038;-88
2022/01/21 09:56:30;;;;;;;1999.90;999.90;;;6.10;75.40;;;;;;4983670;28;20034;-84
2022/01/21 09:58:57;;;;;;;19.63;18.73;;;6.40;74.90;;;;;;4982813;28;20042;-84
2022/01/21 10:01:24;;;;;;;18.07;17.27;;;6.60;74.20;;;;;;4982110;28;20499;-82
2022/01/21 10:03:51;;;;;;;18.83;17.93;;;6.70;73.70;;;;;;4966171;28;20042;-82
2022/01/21 10:06:17;;;;;;;17.63;16.80;;;6.50;74.00;;;;;;4966014;28;20042;-82
2022/01/21 10:08:44;;;;;;;1999.90;999.90;;;6.30;74.60;;;;;;4983723;28;20038;-82
2022/01/21 10:11:11;;;;;;;1999.90;999.90;;;6.40;75.30;;;;;;4983598;28;21572;-82
2022/01/21 10:13:37;;;;;;;1999.90;999.90;;;6.50;75.20;;;;;;4982415;28;20026;-82
2022/01/21 10:16:05;;;;;;;1999.90;999.90;;;6.70;74.80;;;;;;4985646;28;20495;-83
2022/01/21 10:18:31;;;;;;;1999.90;999.90;;;6.90;74.40;;;;;;4961088;28;20043;-89
2022/01/21 10:21:05;;;;;;;19.90;18.90;;;7.10;74.00;;;;;;4966785;28;20038;-82
2022/01/21 10:23:34;;;;;;;18.53;17.70;;;7.20;73.70;;;;;;4981285;28;20491;-83
2022/01/21 10:26:09;;;;;;;1999.90;999.90;;;7.20;73.40;;;;;;4990957;28;20659;-84
2022/01/21 10:28:35;;;;;;;1999.90;999.90;;;7.10;73.70;;;;;;4971895;28;20039;-85
2022/01/21 10:31:12;;;;;;;1999.90;999.90;;;7.10;73.90;;;;;;4986972;28;20610;-84
2022/01/21 10:33:41;;;;;;;18.20;17.40;;;7.30;73.70;;;;;;4990509;28;20057;-83
2022/01/21 10:36:34;;;;;;;20.73;19.77;;;7.30;73.60;;;;;;4973019;28;20475;-85
2022/01/21 10:39:19;;;;;;;1999.90;999.90;;;7.30;73.70;;;;;;4984042;28;20037;-85
2022/01/21 10:41:49;;;;;;;1999.90;999.90;;;7.40;73.70;;;;;;4976230;28;20030;-83
2022/01/21 10:44:17;;;;;;;20.27;19.35;;;7.40;73.30;;;;;;4981946;28;20049;-86
2022/01/21 10:46:46;;;;;;;20.13;19.23;;;7.50;73.30;;;;;;4988729;28;20045;-83
2022/01/21 10:49:14;;;;;;;19.23;18.33;;;7.40;73.00;;;;;;4982073;28;20031;-83
2022/01/21 10:51:41;;;;;;;1999.90;999.90;;;7.20;73.00;;;;;;4983703;28;20406;-84
2022/01/21 10:54:18;;;;;;;1999.90;999.90;;;7.20;73.60;;;;;;4983892;28;20037;-83
2022/01/21 10:57:07;;;;;;;1999.90;999.90;;;7.30;73.50;;;;;;4992135;28;20018;-84
2022/01/21 11:00:05;;;;;;;1999.90;999.90;;;7.40;73.30;;;;;;4990316;28;20051;-80
2022/01/21 11:02:36;;;;;;;19.10;18.20;;;7.50;73.10;;;;;;4989318;28;20039;-81
2022/01/21 11:05:32;;;;;;;20.55;19.63;;;7.60;72.50;;;;;;4983189;28;20050;-81
2022/01/21 11:08:05;;;;;;;19.07;18.17;;;7.70;72.50;;;;;;4979553;28;20040;-83
2022/01/21 11:10:40;;;;;;;25.20;24.00;;;7.70;72.80;;;;;;4990859;28;20498;-83
2022/01/21 11:13:11;;;;;;;21.10;20.10;;;7.70;72.60;;;;;;4988659;28;20027;-85
2022/01/21 11:15:38;;;;;;;1999.90;999.90;;;7.50;72.30;;;;;;4980273;28;20031;-82
2022/01/21 11:18:06;;;;;;;1999.90;999.90;;;7.50;72.40;;;;;;4978109;28;20037;-82
2022/01/21 11:20:35;;;;;;;1999.90;999.90;;;7.40;72.50;;;;;;4986043;28;20034;-82
2022/01/21 11:23:01;;;;;;;1999.90;999.90;;;7.50;72.70;;;;;;4984611;28;20039;-82
2022/01/21 11:25:48;;;;;;;1999.90;999.90;;;7.50;72.70;;;;;;5004708;28;20391;-82
2022/01/21 11:28:15;;;;;;;1999.90;999.90;;;7.60;72.60;;;;;;4989622;28;20022;-83
2022/01/21 11:30:42;;;;;;;1999.90;999.90;;;7.70;72.50;;;;;;4988838;28;20034;-82
2022/01/21 11:33:08;;;;;;;1999.90;999.90;;;7.80;72.20;;;;;;4989991;28;20468;-84
2022/01/21 11:35:34;;;;;;;1999.90;999.90;;;7.80;72.10;;;;;;4985331;28;20030;-82
2022/01/21 11:38:03;;;;;;;1999.90;999.90;;;7.90;72.20;;;;;;4987933;28;20049;-81
2022/01/21 11:40:30;;;;;;;1999.90;999.90;;;8.00;72.10;;;;;;4986123;28;20395;-81
2022/01/21 11:42:56;;;;;;;1999.90;999.90;;;8.10;71.80;;;;;;4988968;28;20487;-81
2022/01/21 11:45:32;;;;;;;1999.90;999.90;;;8.30;71.50;;;;;;4963990;28;20034;-82
2022/01/21 11:50:43;;;;;;;1999.90;999.90;;;8.40;71.30;;;;;;4982206;28;20401;-82
2022/01/21 11:53:09;;;;;;;1999.90;999.90;;;8.40;71.20;;;;;;4984534;28;20510;-83
2022/01/21 11:55:47;;;;;;;1999.90;999.90;;;8.50;71.00;;;;;;4995319;28;20030;-83
2022/01/21 11:58:14;;;;;;;1999.90;999.90;;;8.70;70.70;;;;;;4986073;28;20030;-83
2022/01/21 12:00:40;;;;;;;1999.90;999.90;;;8.80;70.50;;;;;;4986238;28;20383;-84
2022/01/21 12:03:07;;;;;;;1999.90;999.90;;;8.80;70.20;;;;;;4992340;28;20041;-83
2022/01/21 12:05:36;;;;;;;1999.90;999.90;;;8.80;70.20;;;;;;4962083;28;20058;-83
2022/01/21 12:08:04;;;;;;;1999.90;999.90;;;8.90;70.30;;;;;;4991866;28;20034;-83
2022/01/21 12:10:31;;;;;;;1999.90;999.90;;;9.10;69.80;;;;;;4994453;28;20026;-83
2022/01/21 12:13:07;;;;;;;1999.90;999.90;;;9.10;69.20;;;;;;4988363;28;20042;-83
2022/01/21 12:18:54;;;;;;;1999.90;999.90;;;9.30;69.10;;;;;;4994325;28;20038;-83
2022/01/21 12:21:35;;;;;;;1999.90;999.90;;;9.40;68.30;;;;;;4964856;28;20410;-82
2022/01/21 12:24:01;;;;;;;1999.90;999.90;;;9.30;68.60;;;;;;4985741;28;20054;-83
2022/01/21 12:26:28;;;;;;;1999.90;999.90;;;9.30;67.80;;;;;;4992897;28;20312;-83
2022/01/21 12:28:57;;;;;;;1999.90;999.90;;;9.40;68.00;;;;;;4981544;28;20031;-83
2022/01/21 12:31:50;;;;;;;1999.90;999.90;;;9.40;67.80;;;;;;4988093;28;20387;-83
2022/01/21 12:34:16;;;;;;;1999.90;999.90;;;9.40;67.40;;;;;;4990510;28;20026;-83
2022/01/21 12:36:53;;;;;;;1999.90;999.90;;;9.40;66.80;;;;;;4993106;28;20045;-83
2022/01/21 12:39:42;;;;;;;1999.90;999.90;;;9.30;67.30;;;;;;4986378;28;20038;-83
2022/01/21 12:42:32;;;;;;;1999.90;999.90;;;9.30;66.70;;;;;;4985476;28;20387;-83
2022/01/21 12:45:18;;;;;;;1999.90;999.90;;;9.30;66.90;;;;;;4991918;28;20045;-83
2022/01/21 12:47:45;;;;;;;1999.90;999.90;;;9.20;66.90;;;;;;4993679;28;20046;-83
2022/01/21 12:50:25;;;;;;;1999.90;999.90;;;9.20;67.10;;;;;;4990227;28;20031;-84
2022/01/21 12:52:55;;;;;;;1999.90;999.90;;;9.20;67.00;;;;;;4985007;28;20041;-83
2022/01/21 12:58:15;;;;;;;1999.90;999.90;;;9.30;66.70;;;;;;4993768;28;20038;-83
2022/01/21 13:00:41;;;;;;;1999.90;999.90;;;9.30;66.50;;;;;;4992645;28;20034;-83
2022/01/21 13:03:35;;;;;;;1999.90;999.90;;;9.30;66.50;;;;;;4991470;28;20491;-83
2022/01/21 13:06:19;;;;;;;1999.90;999.90;;;9.40;66.50;;;;;;4980309;28;20046;-83
2022/01/21 13:08:59;;;;;;;1999.90;999.90;;;9.50;66.20;;;;;;4982219;28;20061;-83
2022/01/21 13:11:25;;;;;;;1999.90;999.90;;;9.60;66.10;;;;;;4999209;28;20042;-83
2022/01/21 13:16:55;;;;;;;1999.90;999.90;;;9.70;65.40;;;;;;4993865;28;20061;-83
2022/01/21 13:19:21;;;;;;;1999.90;999.90;;;9.50;65.10;;;;;;4986535;28;20030;-83
2022/01/21 13:21:47;;;;;;;1999.90;999.90;;;9.40;65.40;;;;;;4986823;28;20045;-83
2022/01/21 13:24:25;;;;;;;1999.90;999.90;;;9.40;65.50;;;;;;4986113;28;20043;-83
2022/01/21 13:26:53;;;;;;;1999.90;999.90;;;9.40;65.40;;;;;;4977658;28;20035;-83
2022/01/21 13:29:26;;;;;;;1999.90;999.90;;;9.30;65.30;;;;;;4968481;28;20047;-83
2022/01/21 13:31:54;;;;;;;1999.90;999.90;;;9.20;65.60;;;;;;4992661;28;20480;-83
2022/01/21 13:34:40;;;;;;;1999.90;999.90;;;9.10;65.40;;;;;;4993494;28;20415;-83